createdAt,value
2022-07-31T00:00:22.872Z,14.05
2022-07-31T00:02:49.289Z,13.89
2022-07-31T00:05:15.754Z,14.03
2022-07-31T00:07:42.701Z,14.17
2022-07-31T00:10:09.815Z,13.86
2022-07-31T00:12:36.273Z,13.88
2022-07-31T00:15:07.673Z,13.91
2022-07-31T00:17:34.551Z,13.70
2022-07-31T00:20:01.916Z,13.79
2022-07-31T00:22:28.403Z,13.66
2022-07-31T00:24:54.815Z,13.64
2022-07-31T00:27:21.422Z,13.50
2022-07-31T00:29:47.822Z,13.55
2022-07-31T00:32:14.227Z,13.36
2022-07-31T00:34:41.127Z,13.33
2022-07-31T00:37:07.587Z,12.97
2022-07-31T00:39:34.211Z,13.38
2022-07-31T00:42:04.083Z,13.46
2022-07-31T00:44:30.479Z,13.40
2022-07-31T00:46:57.996Z,13.35
2022-07-31T00:49:24.705Z,13.24
2022-07-31T00:51:51.838Z,13.24
2022-07-31T00:54:22.405Z,13.29
2022-07-31T00:56:49.341Z,13.42
2022-07-31T00:59:15.845Z,13.25
2022-07-31T01:01:44.326Z,13.34
2022-07-31T01:04:19.858Z,13.38
2022-07-31T01:06:47.061Z,13.21
2022-07-31T01:09:14.684Z,13.26
2022-07-31T01:11:59.728Z,13.39
2022-07-31T01:14:31.094Z,13.19
2022-07-31T01:17:00.067Z,13.14
2022-07-31T01:19:39.777Z,13.38
2022-07-31T01:22:33.985Z,13.51
2022-07-31T01:25:07.822Z,13.33
2022-07-31T01:27:52.492Z,13.25
2022-07-31T01:30:22.521Z,13.04
2022-07-31T01:32:51.755Z,13.07
2022-07-31T01:35:25.505Z,13.19
2022-07-31T01:38:01.621Z,12.61
2022-07-31T01:40:36.117Z,12.89
2022-07-31T01:43:07.875Z,13.06
2022-07-31T01:45:38.553Z,12.88
2022-07-31T01:48:05.612Z,13.02
2022-07-31T01:50:43.981Z,12.95
2022-07-31T01:53:14.145Z,13.06
2022-07-31T01:56:02.370Z,13.10
2022-07-31T01:58:32.577Z,12.85
2022-07-31T02:01:00.247Z,12.84
2022-07-31T02:03:44.085Z,12.67
2022-07-31T02:06:16.924Z,12.84
2022-07-31T02:08:46.089Z,13.08
2022-07-31T02:11:14.493Z,12.71
2022-07-31T02:13:40.950Z,12.64
2022-07-31T02:16:08.198Z,12.92
2022-07-31T02:18:35.376Z,12.75
2022-07-31T02:21:02.093Z,12.89
2022-07-31T02:23:28.606Z,12.86
2022-07-31T02:25:55.631Z,12.96
2022-07-31T02:28:24.503Z,12.94
2022-07-31T02:30:51.943Z,13.01
2022-07-31T02:33:21.683Z,12.95
2022-07-31T02:35:50.431Z,13.11
2022-07-31T02:38:22.359Z,13.11
2022-07-31T02:40:52.661Z,13.12
2022-07-31T02:43:19.827Z,13.21
2022-07-31T02:45:47.001Z,13.21
2022-07-31T02:48:13.560Z,12.72
2022-07-31T02:50:40.153Z,13.31
2022-07-31T02:53:08.965Z,13.45
2022-07-31T02:55:35.913Z,13.46
2022-07-31T02:58:03.599Z,13.50
2022-07-31T03:00:30.822Z,13.49
2022-07-31T03:02:57.951Z,13.35
2022-07-31T03:05:24.775Z,13.36
2022-07-31T03:07:51.539Z,13.66
2022-07-31T03:10:18.376Z,13.40
2022-07-31T03:12:48.228Z,13.46
2022-07-31T03:15:18.342Z,13.52
2022-07-31T03:17:45.706Z,13.40
2022-07-31T03:20:14.865Z,13.79
2022-07-31T03:22:42.269Z,13.88
2022-07-31T03:25:10.386Z,13.89
2022-07-31T03:27:37.155Z,13.64
2022-07-31T03:30:05.171Z,13.60
2022-07-31T03:32:31.591Z,13.49
2022-07-31T03:34:58.036Z,13.38
2022-07-31T03:37:24.452Z,13.57
2022-07-31T03:39:50.878Z,13.45
2022-07-31T03:42:19.283Z,13.53
2022-07-31T03:44:50.134Z,13.32
2022-07-31T03:47:16.698Z,13.63
2022-07-31T03:49:43.833Z,13.79
2022-07-31T03:52:12.431Z,13.79
2022-07-31T03:54:39.824Z,13.82
2022-07-31T03:57:08.562Z,13.87
2022-07-31T03:59:40.479Z,13.88
2022-07-31T04:02:15.491Z,13.76
2022-07-31T04:04:45.666Z,13.73
2022-07-31T04:07:12.147Z,13.88
2022-07-31T04:09:38.759Z,13.87
2022-07-31T04:12:06.103Z,13.98
2022-07-31T04:14:32.940Z,14.13
2022-07-31T04:16:59.428Z,13.96
2022-07-31T04:19:26.033Z,14.17
2022-07-31T04:21:52.466Z,14.49
2022-07-31T04:24:20.848Z,14.33
2022-07-31T04:26:49.344Z,14.53
2022-07-31T04:29:16.061Z,14.37
2022-07-31T04:31:42.618Z,14.46
2022-07-31T04:34:09.124Z,14.59
2022-07-31T04:36:35.619Z,14.68
2022-07-31T04:39:02.125Z,14.64
2022-07-31T04:41:28.908Z,14.61
2022-07-31T04:43:57.692Z,14.56
2022-07-31T04:46:24.515Z,14.81
2022-07-31T04:48:51.270Z,14.81
2022-07-31T04:51:23.080Z,15.09
2022-07-31T04:53:50.545Z,14.90
2022-07-31T04:56:33.738Z,14.99
2022-07-31T04:59:02.189Z,15.24
2022-07-31T05:01:28.697Z,15.10
2022-07-31T05:03:55.178Z,15.17
2022-07-31T05:06:22.500Z,15.33
2022-07-31T05:08:52.031Z,15.66
2022-07-31T05:11:24.598Z,15.48
2022-07-31T05:13:59.164Z,15.86
2022-07-31T05:16:28.712Z,15.73
2022-07-31T05:18:55.711Z,15.66
2022-07-31T05:21:27.109Z,15.77
2022-07-31T05:23:54.649Z,15.98
2022-07-31T05:26:21.171Z,15.77
2022-07-31T05:28:56.467Z,15.82
2022-07-31T05:31:28.214Z,15.81
2022-07-31T05:33:54.666Z,15.98
2022-07-31T05:36:21.622Z,16.13
2022-07-31T05:38:48.174Z,16.04
2022-07-31T05:41:14.983Z,16.01
2022-07-31T05:43:41.414Z,16.06
2022-07-31T05:46:08.294Z,16.27
2022-07-31T05:48:34.793Z,16.25
2022-07-31T05:51:09.426Z,16.44
2022-07-31T05:53:36.223Z,16.35
2022-07-31T05:56:02.860Z,16.57
2022-07-31T05:58:29.293Z,16.44
2022-07-31T06:00:55.701Z,16.54
2022-07-31T06:03:23.986Z,16.71
2022-07-31T06:05:51.930Z,16.80
2022-07-31T06:08:18.478Z,16.66
2022-07-31T06:10:45.151Z,16.74
2022-07-31T06:13:12.888Z,17.01
2022-07-31T06:15:39.376Z,17.00
2022-07-31T06:18:09.096Z,16.92
2022-07-31T06:20:35.595Z,17.30
2022-07-31T06:23:03.729Z,17.29
2022-07-31T06:25:46.621Z,17.06
2022-07-31T06:28:15.325Z,17.33
2022-07-31T06:30:43.962Z,17.44
2022-07-31T06:33:16.714Z,17.61
2022-07-31T06:35:58.782Z,17.60
2022-07-31T06:38:25.233Z,17.58
2022-07-31T06:40:52.157Z,17.72
2022-07-31T06:43:18.631Z,17.74
2022-07-31T06:45:51.539Z,18.00
2022-07-31T06:48:18.729Z,18.14
2022-07-31T06:50:45.392Z,18.15
2022-07-31T06:53:11.786Z,18.44
2022-07-31T06:55:44.755Z,18.56
2022-07-31T06:58:11.342Z,18.78
2022-07-31T07:00:40.822Z,18.81
2022-07-31T07:03:07.215Z,18.92
2022-07-31T07:05:33.655Z,19.13
2022-07-31T07:08:01.113Z,19.05
2022-07-31T07:10:27.547Z,19.01
2022-07-31T07:12:54.190Z,19.00
2022-07-31T07:15:20.833Z,18.91
2022-07-31T07:17:47.214Z,19.01
2022-07-31T07:20:13.868Z,18.90
2022-07-31T07:22:40.323Z,19.11
2022-07-31T07:25:07.123Z,19.28
2022-07-31T07:27:33.546Z,19.44
2022-07-31T07:30:00.558Z,19.77
2022-07-31T07:32:26.984Z,19.97
2022-07-31T07:34:59.885Z,20.08
2022-07-31T07:37:27.441Z,20.07
2022-07-31T07:39:53.864Z,20.20
2022-07-31T07:42:20.334Z,20.01
2022-07-31T07:44:46.795Z,20.03
2022-07-31T07:47:13.534Z,20.05
2022-07-31T07:49:39.941Z,19.80
2022-07-31T07:52:06.384Z,20.19
2022-07-31T07:54:32.832Z,20.33
2022-07-31T07:57:02.388Z,20.78
2022-07-31T07:59:28.813Z,20.41
2022-07-31T08:01:55.725Z,20.49
2022-07-31T08:04:22.126Z,20.62
2022-07-31T08:06:48.541Z,20.82
2022-07-31T08:09:14.966Z,20.95
2022-07-31T08:11:41.491Z,20.85
2022-07-31T08:14:07.888Z,21.22
2022-07-31T08:16:40.482Z,21.34
2022-07-31T08:19:09.024Z,21.47
2022-07-31T08:21:35.759Z,21.64
2022-07-31T08:24:02.395Z,21.85
2022-07-31T08:26:48.858Z,22.01
2022-07-31T08:29:15.365Z,21.94
2022-07-31T08:31:41.799Z,21.84
2022-07-31T08:34:30.580Z,21.92
2022-07-31T08:36:58.694Z,22.03
2022-07-31T08:39:26.131Z,21.88
2022-07-31T08:41:52.590Z,21.80
2022-07-31T08:44:25.841Z,21.81
2022-07-31T08:46:58.337Z,22.13
2022-07-31T08:49:26.319Z,22.12
2022-07-31T08:51:55.415Z,22.14
2022-07-31T08:54:26.328Z,22.16
2022-07-31T08:56:53.757Z,22.11
2022-07-31T08:59:21.958Z,22.22
2022-07-31T09:01:48.697Z,22.20
2022-07-31T09:04:17.350Z,22.32
2022-07-31T09:06:44.944Z,22.72
2022-07-31T09:09:11.381Z,22.64
2022-07-31T09:11:49.864Z,22.88
2022-07-31T09:14:34.464Z,22.93
2022-07-31T09:17:05.352Z,23.17
2022-07-31T09:19:51.913Z,23.30
2022-07-31T09:22:23.957Z,23.14
2022-07-31T09:24:50.937Z,22.95
2022-07-31T09:27:18.004Z,22.93
2022-07-31T09:29:46.841Z,23.18
2022-07-31T09:32:15.955Z,23.05
2022-07-31T09:34:44.878Z,22.97
2022-07-31T09:37:29.651Z,22.93
2022-07-31T09:39:57.322Z,23.25
2022-07-31T09:42:38.866Z,23.36
2022-07-31T09:45:22.581Z,23.40
2022-07-31T09:48:15.283Z,23.62
2022-07-31T09:51:13.499Z,23.80
2022-07-31T09:53:52.945Z,23.88
2022-07-31T09:56:33.669Z,23.72
2022-07-31T09:59:00.822Z,24.45
2022-07-31T10:01:27.970Z,24.35
2022-07-31T10:03:56.952Z,24.68
2022-07-31T10:06:27.199Z,24.28
2022-07-31T10:08:55.376Z,24.73
2022-07-31T10:11:22.535Z,24.19
2022-07-31T10:13:51.227Z,24.24
2022-07-31T10:16:19.387Z,24.15
2022-07-31T10:18:53.080Z,24.37
2022-07-31T10:21:27.717Z,23.89
2022-07-31T10:23:55.532Z,24.03
2022-07-31T10:26:34.308Z,23.82
2022-07-31T10:29:09.500Z,24.12
2022-07-31T10:31:36.171Z,24.21
2022-07-31T10:34:03.293Z,23.93
2022-07-31T10:36:35.827Z,24.33
2022-07-31T10:39:13.614Z,24.26
2022-07-31T10:41:59.979Z,24.12
2022-07-31T10:44:41.205Z,24.38
2022-07-31T10:47:15.052Z,24.45
2022-07-31T10:49:47.833Z,24.52
2022-07-31T10:52:15.462Z,24.58
2022-07-31T10:54:46.407Z,24.85
2022-07-31T10:57:27.290Z,24.51
2022-07-31T11:00:14.482Z,24.60
2022-07-31T11:02:41.177Z,24.62
2022-07-31T11:05:13.143Z,24.74
2022-07-31T11:07:41.670Z,24.30
2022-07-31T11:10:10.151Z,23.95
2022-07-31T11:12:36.823Z,23.98
2022-07-31T11:15:04.030Z,23.89
2022-07-31T11:18:21.916Z,23.79
2022-07-31T11:20:27.477Z,23.42
2022-07-31T11:23:05.973Z,24.10
2022-07-31T11:25:37.024Z,23.92
2022-07-31T11:28:18.621Z,23.66
2022-07-31T11:30:53.243Z,23.80
2022-07-31T11:33:46.076Z,24.20
2022-07-31T11:36:19.991Z,24.09
2022-07-31T11:38:52.134Z,24.59
2022-07-31T11:41:22.791Z,24.29
2022-07-31T11:43:51.614Z,24.36
2022-07-31T11:46:29.695Z,24.46
2022-07-31T11:48:57.123Z,24.16
2022-07-31T11:51:25.261Z,23.85
2022-07-31T11:53:57.550Z,24.05
2022-07-31T11:56:26.360Z,24.21
2022-07-31T11:58:58.015Z,24.26
2022-07-31T12:01:27.690Z,24.62
2022-07-31T12:03:55.261Z,24.27
2022-07-31T12:06:22.050Z,24.02
2022-07-31T12:08:49.861Z,23.67
2022-07-31T12:11:18.597Z,23.99
2022-07-31T12:13:47.347Z,23.83
2022-07-31T12:16:14.123Z,23.80
2022-07-31T12:18:53.987Z,23.49
2022-07-31T12:21:29.364Z,23.61
2022-07-31T12:23:59.608Z,23.60
2022-07-31T12:26:31.812Z,24.02
2022-07-31T12:29:06.256Z,24.15
2022-07-31T12:31:45.892Z,24.04
2022-07-31T12:34:13.414Z,24.09
2022-07-31T12:36:43.974Z,23.96
2022-07-31T12:39:12.452Z,23.94
2022-07-31T12:41:43.231Z,24.09
2022-07-31T12:44:14.561Z,24.31
2022-07-31T12:46:42.269Z,24.10
2022-07-31T12:49:09.169Z,24.58
2022-07-31T12:51:45.415Z,25.01
2022-07-31T12:54:17.251Z,24.59
2022-07-31T12:56:45.058Z,24.45
2022-07-31T12:59:12.103Z,24.69
2022-07-31T13:01:39.151Z,24.89
2022-07-31T13:04:07.898Z,24.87
2022-07-31T13:06:36.121Z,24.91
2022-07-31T13:09:02.804Z,24.85
2022-07-31T13:11:46.936Z,24.97
2022-07-31T13:14:16.334Z,25.47
2022-07-31T13:16:44.511Z,25.48
2022-07-31T13:19:11.606Z,25.40
2022-07-31T13:21:48.274Z,25.27
2022-07-31T13:24:20.026Z,25.63
2022-07-31T13:26:47.741Z,25.65
2022-07-31T13:29:14.238Z,25.44
2022-07-31T13:31:40.825Z,25.49
2022-07-31T13:34:08.411Z,25.61
2022-07-31T13:36:45.753Z,25.78
2022-07-31T13:39:15.283Z,26.44
2022-07-31T13:41:41.851Z,26.05
2022-07-31T13:44:09.455Z,26.28
2022-07-31T13:46:36.483Z,26.20
2022-07-31T13:49:08.149Z,26.23
2022-07-31T13:51:35.679Z,26.51
2022-07-31T13:54:02.244Z,26.54
2022-07-31T13:56:39.003Z,26.04
2022-07-31T13:59:11.383Z,26.63
2022-07-31T14:02:03.447Z,26.49
2022-07-31T14:04:24.531Z,26.39
2022-07-31T14:06:51.694Z,26.19
2022-07-31T14:09:19.195Z,26.19
2022-07-31T14:11:46.109Z,26.27
2022-07-31T14:14:15.097Z,26.53
2022-07-31T14:16:48.815Z,26.58
2022-07-31T14:19:15.459Z,26.71
2022-07-31T14:21:56.504Z,26.27
2022-07-31T14:24:25.187Z,26.77
2022-07-31T14:26:51.914Z,26.71
2022-07-31T14:29:18.448Z,26.51
2022-07-31T14:31:44.834Z,26.43
2022-07-31T14:34:11.275Z,26.74
2022-07-31T14:36:37.838Z,26.75
2022-07-31T14:39:04.265Z,26.27
2022-07-31T14:41:30.685Z,26.13
2022-07-31T14:43:57.082Z,26.03
2022-07-31T14:46:23.507Z,26.01
2022-07-31T14:48:50.102Z,26.28
2022-07-31T14:51:18.193Z,26.02
2022-07-31T14:53:46.739Z,26.25
2022-07-31T14:56:13.135Z,26.14
2022-07-31T14:58:58.553Z,26.13
2022-07-31T15:01:30.388Z,26.47
2022-07-31T15:03:57.671Z,26.49
2022-07-31T15:06:48.808Z,26.57
2022-07-31T15:09:22.157Z,26.79
2022-07-31T15:11:59.804Z,26.92
2022-07-31T15:14:30.786Z,26.71
2022-07-31T15:16:57.842Z,26.15
2022-07-31T15:19:24.265Z,25.19
2022-07-31T15:22:11.072Z,25.70
2022-07-31T15:24:41.270Z,25.61
2022-07-31T15:27:12.018Z,25.86
2022-07-31T15:30:00.391Z,25.89
2022-07-31T15:32:24.970Z,25.93
2022-07-31T15:35:08.815Z,26.40
2022-07-31T15:37:37.449Z,26.60
2022-07-31T15:40:07.193Z,26.70
2022-07-31T15:42:40.339Z,26.82
2022-07-31T15:45:09.538Z,26.69
2022-07-31T15:47:36.313Z,26.34
2022-07-31T15:50:03.166Z,26.84
2022-07-31T15:52:29.742Z,26.73
2022-07-31T15:54:57.382Z,27.00
2022-07-31T15:57:24.679Z,26.52
2022-07-31T15:59:54.307Z,26.73
2022-07-31T16:02:23.999Z,26.78
2022-07-31T16:04:56.580Z,27.17
2022-07-31T16:08:30.039Z,26.86
2022-07-31T16:10:17.673Z,27.06
2022-07-31T16:12:47.994Z,26.93
2022-07-31T16:15:16.126Z,26.82
2022-07-31T16:17:43.031Z,26.43
2022-07-31T16:20:11.128Z,26.44
2022-07-31T16:22:40.159Z,26.29
2022-07-31T16:25:08.567Z,26.26
2022-07-31T16:27:35.109Z,26.75
2022-07-31T16:30:02.922Z,26.99
2022-07-31T16:32:30.359Z,27.11
2022-07-31T16:35:00.867Z,27.20
2022-07-31T16:37:51.327Z,27.36
2022-07-31T16:40:29.940Z,27.08
2022-07-31T16:43:49.489Z,27.20
2022-07-31T16:45:53.966Z,26.92
2022-07-31T16:48:20.649Z,26.95
2022-07-31T16:50:53.771Z,26.84
2022-07-31T16:54:10.989Z,26.65
2022-07-31T16:56:11.262Z,26.98
2022-07-31T16:58:37.794Z,27.15
2022-07-31T17:01:04.432Z,26.73
2022-07-31T17:04:01.330Z,27.06
2022-07-31T17:06:17.555Z,26.98
2022-07-31T17:08:43.989Z,26.81
2022-07-31T17:11:10.508Z,26.44
2022-07-31T17:13:37.124Z,26.21
2022-07-31T17:16:03.884Z,26.46
2022-07-31T17:18:30.461Z,27.07
2022-07-31T17:20:57.139Z,26.77
2022-07-31T17:23:43.329Z,26.53
2022-07-31T17:26:21.157Z,26.57
2022-07-31T17:28:49.803Z,26.59
2022-07-31T17:31:16.454Z,26.31
2022-07-31T17:33:59.795Z,26.38
2022-07-31T17:36:29.490Z,26.45
2022-07-31T17:38:57.101Z,26.53
2022-07-31T17:41:25.206Z,26.30
2022-07-31T17:43:56.007Z,26.23
2022-07-31T17:46:29.984Z,26.19
2022-07-31T17:49:02.663Z,26.01
2022-07-31T17:51:29.153Z,25.64
2022-07-31T17:53:59.133Z,25.11
2022-07-31T17:56:26.704Z,25.32
2022-07-31T17:58:53.790Z,25.20
2022-07-31T18:01:21.616Z,24.74
2022-07-31T18:03:50.937Z,24.94
2022-07-31T18:06:17.365Z,24.82
2022-07-31T18:08:44.028Z,24.77
2022-07-31T18:11:10.478Z,24.79
2022-07-31T18:13:39.168Z,24.47
2022-07-31T18:16:16.184Z,24.41
2022-07-31T18:18:42.637Z,24.21
2022-07-31T18:21:09.329Z,23.87
2022-07-31T18:23:35.824Z,23.76
2022-07-31T18:26:03.342Z,23.40
2022-07-31T18:28:31.561Z,23.67
2022-07-31T18:31:04.721Z,23.17
2022-07-31T18:33:51.127Z,23.04
2022-07-31T18:36:17.702Z,22.77
2022-07-31T18:38:44.113Z,23.02
2022-07-31T18:41:10.555Z,22.82
2022-07-31T18:43:37.049Z,22.66
2022-07-31T18:46:03.475Z,22.55
2022-07-31T18:48:30.049Z,22.57
2022-07-31T18:50:58.099Z,22.24
2022-07-31T18:53:31.372Z,22.28
2022-07-31T18:55:57.782Z,21.93
2022-07-31T18:58:24.269Z,21.75
2022-07-31T19:00:54.956Z,21.85
2022-07-31T19:03:23.425Z,21.79
2022-07-31T19:05:52.206Z,22.20
2022-07-31T19:08:19.907Z,22.35
2022-07-31T19:10:49.051Z,22.14
2022-07-31T19:13:18.894Z,22.05
2022-07-31T19:15:50.553Z,22.12
2022-07-31T19:18:17.247Z,21.96
2022-07-31T19:20:59.881Z,21.49
2022-07-31T19:23:35.171Z,22.02
2022-07-31T19:26:04.093Z,21.86
2022-07-31T19:28:34.945Z,22.06
2022-07-31T19:31:07.448Z,22.01
2022-07-31T19:33:34.328Z,21.90
2022-07-31T19:36:02.863Z,21.94
2022-07-31T19:38:33.781Z,22.10
2022-07-31T19:41:00.310Z,22.11
2022-07-31T19:43:26.999Z,22.13
2022-07-31T19:45:58.717Z,21.76
2022-07-31T19:48:39.630Z,21.83
2022-07-31T19:51:06.599Z,21.94
2022-07-31T19:53:33.080Z,21.93
2022-07-31T19:56:05.528Z,21.70
2022-07-31T19:58:34.308Z,21.92
2022-07-31T20:01:00.942Z,22.17
2022-07-31T20:03:29.600Z,22.02
2022-07-31T20:05:56.718Z,21.92
2022-07-31T20:08:23.744Z,21.72
2022-07-31T20:10:51.498Z,21.85
2022-07-31T20:13:18.787Z,22.07
2022-07-31T20:15:51.029Z,21.78
2022-07-31T20:18:27.271Z,21.96
2022-07-31T20:20:56.851Z,21.80
2022-07-31T20:23:24.105Z,21.73
2022-07-31T20:25:50.641Z,21.96
2022-07-31T20:28:17.180Z,21.91
2022-07-31T20:30:43.696Z,21.87
2022-07-31T20:33:11.088Z,21.89
2022-07-31T20:35:49.122Z,21.82
2022-07-31T20:38:25.691Z,21.91
2022-07-31T20:40:55.453Z,21.90
2022-07-31T20:43:24.266Z,21.88
2022-07-31T20:45:52.273Z,22.13
2022-07-31T20:48:20.961Z,22.03
2022-07-31T20:50:48.768Z,22.11
2022-07-31T20:53:16.273Z,21.82
2022-07-31T20:55:49.096Z,21.89
2022-07-31T20:58:16.169Z,21.76
2022-07-31T21:00:42.968Z,21.51
2022-07-31T21:03:09.533Z,21.80
2022-07-31T21:05:36.029Z,21.69
2022-07-31T21:08:02.594Z,21.85
2022-07-31T21:10:29.951Z,21.80
2022-07-31T21:12:57.501Z,21.67
2022-07-31T21:15:43.228Z,21.92
2022-07-31T21:18:18.915Z,22.02
2022-07-31T21:20:50.701Z,21.99
2022-07-31T21:23:23.545Z,22.07
2022-07-31T21:25:51.683Z,22.10
2022-07-31T21:28:18.497Z,21.89
2022-07-31T21:30:46.681Z,22.10
2022-07-31T21:33:13.355Z,21.99
2022-07-31T21:35:40.593Z,22.05
2022-07-31T21:38:11.724Z,22.32
2022-07-31T21:40:38.839Z,22.28
2022-07-31T21:43:05.705Z,22.05
2022-07-31T21:45:43.398Z,22.33
2022-07-31T21:48:19.664Z,22.31
2022-07-31T21:50:46.704Z,22.42
2022-07-31T21:53:13.960Z,22.37
2022-07-31T21:55:40.886Z,22.34
2022-07-31T21:58:08.982Z,22.29
2022-07-31T22:00:36.705Z,22.29
2022-07-31T22:03:04.435Z,22.22
2022-07-31T22:05:50.784Z,22.19
2022-07-31T22:08:17.572Z,22.23
2022-07-31T22:10:44.609Z,22.14
2022-07-31T22:13:11.052Z,22.16
2022-07-31T22:15:58.358Z,22.47
2022-07-31T22:18:26.570Z,22.39
2022-07-31T22:20:53.663Z,22.30
2022-07-31T22:23:20.784Z,22.51
2022-07-31T22:25:48.942Z,22.49
2022-07-31T22:28:18.714Z,22.38
2022-07-31T22:30:45.584Z,22.57
2022-07-31T22:33:14.417Z,22.45
2022-07-31T22:35:41.129Z,22.72
2022-07-31T22:38:08.559Z,22.39
2022-07-31T22:40:35.216Z,22.36
2022-07-31T22:43:02.329Z,22.44
2022-07-31T22:45:29.503Z,22.19
2022-07-31T22:47:56.874Z,22.38
2022-07-31T22:50:23.568Z,22.46
2022-07-31T22:52:50.020Z,22.49
2022-07-31T22:55:16.533Z,22.12
2022-07-31T22:57:46.175Z,22.11
2022-07-31T23:00:14.624Z,22.33
2022-07-31T23:02:42.962Z,22.13
2022-07-31T23:05:10.196Z,22.25
2022-07-31T23:07:37.429Z,21.96
2022-07-31T23:10:06.172Z,22.05
2022-07-31T23:12:32.951Z,22.05
2022-07-31T23:14:59.424Z,22.25
2022-07-31T23:17:25.988Z,22.24
2022-07-31T23:19:53.913Z,22.22
2022-07-31T23:22:33.178Z,21.91
2022-07-31T23:25:01.987Z,22.26
2022-07-31T23:27:28.430Z,22.08
2022-07-31T23:29:54.865Z,22.03
2022-07-31T23:32:21.388Z,21.87
2022-07-31T23:34:47.850Z,21.69
2022-07-31T23:37:14.291Z,22.07
2022-07-31T23:39:40.804Z,22.12
2022-07-31T23:42:26.155Z,22.07
2022-07-31T23:44:52.598Z,22.02
2022-07-31T23:47:19.083Z,22.01
2022-07-31T23:49:46.358Z,22.25
2022-07-31T23:52:12.953Z,22.44
2022-07-31T23:54:39.521Z,22.10
2022-07-31T23:57:05.978Z,22.29
2022-07-31T23:59:32.455Z,21.89
